Terminal Aerodrome Forecast
Issued by NWS

Home | Current Version | Previous Version | Text Only | Print | Product List | Glossary On
Versions: 1 2 3 4 5 6 7 8 9 10 11 12 13 14
000
FTUS43 KAPX 192327
TAFPLN
TAF
KPLN 192327Z 2000/2024 25008KT P6SM FEW250
     FM200600 24008KT P6SM FEW250 WS015/24030KT
     FM201600 22011G17KT P6SM FEW250
     FM202100 22008KT P6SM FEW250=

USA.gov is the U.S. government's official web portal to all federal, state and local government web resources and services.